sensor_id;sensor_type;location;lat;lon;timestamp;P1;durP1;ratioP1;P2;durP2;ratioP2
57551;SDS011;43379;48.160;14.036;2023-02-17T00:01:58;40.43;;;28.50;;
57551;SDS011;43379;48.160;14.036;2023-02-17T00:04:26;33.43;;;28.90;;
57551;SDS011;43379;48.160;14.036;2023-02-17T00:06:53;29.77;;;26.00;;
57551;SDS011;43379;48.160;14.036;2023-02-17T00:09:19;30.93;;;26.20;;
57551;SDS011;43379;48.160;14.036;2023-02-17T00:11:44;32.93;;;28.20;;
57551;SDS011;43379;48.160;14.036;2023-02-17T00:14:11;32.63;;;27.00;;
57551;SDS011;43379;48.160;14.036;2023-02-17T00:16:37;31.63;;;25.37;;
57551;SDS011;43379;48.160;14.036;2023-02-17T00:19:03;34.53;;;27.00;;
57551;SDS011;43379;48.160;14.036;2023-02-17T00:21:47;33.30;;;26.10;;
57551;SDS011;43379;48.160;14.036;2023-02-17T00:24:17;32.37;;;26.57;;
57551;SDS011;43379;48.160;14.036;2023-02-17T00:26:43;28.27;;;25.20;;
57551;SDS011;43379;48.160;14.036;2023-02-17T00:29:09;28.93;;;24.87;;
57551;SDS011;43379;48.160;14.036;2023-02-17T00:31:34;31.53;;;26.20;;
57551;SDS011;43379;48.160;14.036;2023-02-17T00:34:00;32.00;;;27.70;;
57551;SDS011;43379;48.160;14.036;2023-02-17T00:36:26;29.43;;;25.63;;
57551;SDS011;43379;48.160;14.036;2023-02-17T00:38:52;29.03;;;24.43;;
57551;SDS011;43379;48.160;14.036;2023-02-17T00:41:20;30.73;;;27.17;;
57551;SDS011;43379;48.160;14.036;2023-02-17T00:43:47;32.40;;;25.47;;
57551;SDS011;43379;48.160;14.036;2023-02-17T00:46:13;28.67;;;25.63;;
57551;SDS011;43379;48.160;14.036;2023-02-17T00:48:40;32.77;;;26.70;;
57551;SDS011;43379;48.160;14.036;2023-02-17T00:51:06;30.97;;;26.60;;
57551;SDS011;43379;48.160;14.036;2023-02-17T00:53:32;30.27;;;26.93;;
57551;SDS011;43379;48.160;14.036;2023-02-17T00:55:58;29.57;;;25.73;;
57551;SDS011;43379;48.160;14.036;2023-02-17T00:58:23;36.13;;;27.20;;
57551;SDS011;43379;48.160;14.036;2023-02-17T01:00:49;32.77;;;28.00;;
57551;SDS011;43379;48.160;14.036;2023-02-17T01:03:16;34.13;;;27.70;;
57551;SDS011;43379;48.160;14.036;2023-02-17T01:05:47;30.27;;;26.80;;
57551;SDS011;43379;48.160;14.036;2023-02-17T01:08:13;28.23;;;25.43;;
57551;SDS011;43379;48.160;14.036;2023-02-17T01:10:41;31.27;;;27.00;;
57551;SDS011;43379;48.160;14.036;2023-02-17T01:13:08;30.97;;;26.33;;
57551;SDS011;43379;48.160;14.036;2023-02-17T01:15:38;31.50;;;27.17;;
57551;SDS011;43379;48.160;14.036;2023-02-17T01:18:09;29.73;;;26.40;;
57551;SDS011;43379;48.160;14.036;2023-02-17T01:20:35;29.80;;;25.37;;
57551;SDS011;43379;48.160;14.036;2023-02-17T01:23:03;36.33;;;27.37;;
57551;SDS011;43379;48.160;14.036;2023-02-17T01:25:30;37.00;;;27.90;;
57551;SDS011;43379;48.160;14.036;2023-02-17T01:27:56;33.23;;;27.37;;
57551;SDS011;43379;48.160;14.036;2023-02-17T01:30:22;29.17;;;26.17;;
57551;SDS011;43379;48.160;14.036;2023-02-17T01:32:47;33.20;;;26.37;;
57551;SDS011;43379;48.160;14.036;2023-02-17T01:35:13;33.77;;;28.13;;
57551;SDS011;43379;48.160;14.036;2023-02-17T01:37:39;32.63;;;26.90;;
57551;SDS011;43379;48.160;14.036;2023-02-17T01:40:04;29.13;;;25.80;;
57551;SDS011;43379;48.160;14.036;2023-02-17T01:42:31;27.93;;;24.77;;
57551;SDS011;43379;48.160;14.036;2023-02-17T01:50:25;33.97;;;27.77;;
57551;SDS011;43379;48.160;14.036;2023-02-17T01:52:56;36.50;;;27.73;;
57551;SDS011;43379;48.160;14.036;2023-02-17T01:55:23;36.00;;;28.33;;
57551;SDS011;43379;48.160;14.036;2023-02-17T01:57:50;32.60;;;27.77;;
57551;SDS011;43379;48.160;14.036;2023-02-17T02:00:20;40.67;;;29.20;;
57551;SDS011;43379;48.160;14.036;2023-02-17T02:02:48;31.77;;;27.40;;
57551;SDS011;43379;48.160;14.036;2023-02-17T02:05:15;35.47;;;28.87;;
57551;SDS011;43379;48.160;14.036;2023-02-17T02:07:42;34.50;;;28.10;;
57551;SDS011;43379;48.160;14.036;2023-02-17T02:10:10;36.23;;;27.97;;
57551;SDS011;43379;48.160;14.036;2023-02-17T02:12:38;40.83;;;28.10;;
57551;SDS011;43379;48.160;14.036;2023-02-17T02:15:08;27.67;;;24.70;;
57551;SDS011;43379;48.160;14.036;2023-02-17T02:20:41;31.60;;;27.53;;
57551;SDS011;43379;48.160;14.036;2023-02-17T02:23:41;28.30;;;25.33;;
57551;SDS011;43379;48.160;14.036;2023-02-17T02:34:18;33.43;;;26.57;;
57551;SDS011;43379;48.160;14.036;2023-02-17T02:36:55;30.07;;;26.07;;
57551;SDS011;43379;48.160;14.036;2023-02-17T02:39:30;32.97;;;26.30;;
57551;SDS011;43379;48.160;14.036;2023-02-17T02:42:00;32.90;;;26.77;;
57551;SDS011;43379;48.160;14.036;2023-02-17T02:44:29;33.90;;;27.47;;
57551;SDS011;43379;48.160;14.036;2023-02-17T02:47:39;31.73;;;26.17;;
57551;SDS011;43379;48.160;14.036;2023-02-17T02:49:59;32.20;;;27.57;;
57551;SDS011;43379;48.160;14.036;2023-02-17T02:55:06;32.60;;;25.30;;
57551;SDS011;43379;48.160;14.036;2023-02-17T03:10:56;27.47;;;24.47;;
57551;SDS011;43379;48.160;14.036;2023-02-17T03:13:22;35.50;;;27.63;;
57551;SDS011;43379;48.160;14.036;2023-02-17T03:15:48;27.60;;;23.67;;
57551;SDS011;43379;48.160;14.036;2023-02-17T03:18:14;33.20;;;26.83;;
57551;SDS011;43379;48.160;14.036;2023-02-17T03:20:44;29.37;;;26.20;;
57551;SDS011;43379;48.160;14.036;2023-02-17T03:23:15;33.30;;;27.83;;
57551;SDS011;43379;48.160;14.036;2023-02-17T03:25:41;35.10;;;29.20;;
57551;SDS011;43379;48.160;14.036;2023-02-17T03:28:09;33.30;;;27.17;;
57551;SDS011;43379;48.160;14.036;2023-02-17T03:30:35;33.40;;;27.23;;
57551;SDS011;43379;48.160;14.036;2023-02-17T03:33:01;35.77;;;29.10;;
57551;SDS011;43379;48.160;14.036;2023-02-17T03:35:27;34.17;;;27.33;;
57551;SDS011;43379;48.160;14.036;2023-02-17T03:37:53;36.07;;;30.83;;
57551;SDS011;43379;48.160;14.036;2023-02-17T03:40:18;35.30;;;29.40;;
57551;SDS011;43379;48.160;14.036;2023-02-17T03:42:44;37.40;;;31.70;;
57551;SDS011;43379;48.160;14.036;2023-02-17T03:45:10;33.10;;;28.17;;
57551;SDS011;43379;48.160;14.036;2023-02-17T03:47:35;36.03;;;30.27;;
57551;SDS011;43379;48.160;14.036;2023-02-17T03:50:01;37.77;;;29.00;;
57551;SDS011;43379;48.160;14.036;2023-02-17T03:52:27;29.73;;;26.50;;
57551;SDS011;43379;48.160;14.036;2023-02-17T03:54:52;32.13;;;27.40;;
57551;SDS011;43379;48.160;14.036;2023-02-17T03:57:18;34.40;;;27.60;;
57551;SDS011;43379;48.160;14.036;2023-02-17T03:59:43;32.77;;;26.17;;
57551;SDS011;43379;48.160;14.036;2023-02-17T04:02:09;31.03;;;27.60;;
57551;SDS011;43379;48.160;14.036;2023-02-17T04:04:35;29.47;;;26.27;;
57551;SDS011;43379;48.160;14.036;2023-02-17T04:07:01;32.67;;;29.03;;
57551;SDS011;43379;48.160;14.036;2023-02-17T04:09:27;27.43;;;24.53;;
57551;SDS011;43379;48.160;14.036;2023-02-17T04:11:53;30.70;;;25.90;;
57551;SDS011;43379;48.160;14.036;2023-02-17T04:14:18;28.27;;;25.20;;
57551;SDS011;43379;48.160;14.036;2023-02-17T04:16:44;32.10;;;28.67;;
57551;SDS011;43379;48.160;14.036;2023-02-17T04:19:10;31.30;;;26.03;;
57551;SDS011;43379;48.160;14.036;2023-02-17T04:21:35;28.97;;;25.70;;
57551;SDS011;43379;48.160;14.036;2023-02-17T04:24:01;31.23;;;26.80;;
57551;SDS011;43379;48.160;14.036;2023-02-17T04:26:28;31.93;;;27.33;;
57551;SDS011;43379;48.160;14.036;2023-02-17T04:28:54;32.13;;;28.63;;
57551;SDS011;43379;48.160;14.036;2023-02-17T04:31:20;30.27;;;27.07;;
57551;SDS011;43379;48.160;14.036;2023-02-17T04:33:46;29.73;;;26.00;;
57551;SDS011;43379;48.160;14.036;2023-02-17T04:36:11;32.07;;;26.97;;
57551;SDS011;43379;48.160;14.036;2023-02-17T04:38:37;29.37;;;26.20;;
57551;SDS011;43379;48.160;14.036;2023-02-17T04:41:04;33.60;;;30.10;;
57551;SDS011;43379;48.160;14.036;2023-02-17T04:43:30;30.80;;;26.53;;
57551;SDS011;43379;48.160;14.036;2023-02-17T04:45:56;33.93;;;26.23;;
57551;SDS011;43379;48.160;14.036;2023-02-17T04:48:22;31.67;;;25.87;;
57551;SDS011;43379;48.160;14.036;2023-02-17T04:50:49;30.63;;;25.80;;
57551;SDS011;43379;48.160;14.036;2023-02-17T04:53:15;33.60;;;29.33;;
57551;SDS011;43379;48.160;14.036;2023-02-17T04:55:41;32.20;;;27.10;;
57551;SDS011;43379;48.160;14.036;2023-02-17T04:58:07;34.57;;;28.67;;
57551;SDS011;43379;48.160;14.036;2023-02-17T05:00:33;30.03;;;26.80;;
57551;SDS011;43379;48.160;14.036;2023-02-17T05:02:59;33.83;;;29.03;;
57551;SDS011;43379;48.160;14.036;2023-02-17T05:05:25;29.00;;;26.00;;
57551;SDS011;43379;48.160;14.036;2023-02-17T05:07:51;33.83;;;28.60;;
57551;SDS011;43379;48.160;14.036;2023-02-17T05:10:17;34.17;;;28.83;;
57551;SDS011;43379;48.160;14.036;2023-02-17T05:12:43;28.67;;;24.80;;
57551;SDS011;43379;48.160;14.036;2023-02-17T05:15:09;32.20;;;26.00;;
57551;SDS011;43379;48.160;14.036;2023-02-17T05:17:36;30.83;;;27.53;;
57551;SDS011;43379;48.160;14.036;2023-02-17T05:20:02;33.53;;;26.87;;
57551;SDS011;43379;48.160;14.036;2023-02-17T05:22:29;30.90;;;26.90;;
57551;SDS011;43379;48.160;14.036;2023-02-17T05:24:55;32.27;;;27.50;;
57551;SDS011;43379;48.160;14.036;2023-02-17T05:27:21;31.10;;;27.80;;
57551;SDS011;43379;48.160;14.036;2023-02-17T05:29:47;36.00;;;29.70;;
57551;SDS011;43379;48.160;14.036;2023-02-17T05:32:12;31.20;;;26.80;;
57551;SDS011;43379;48.160;14.036;2023-02-17T05:34:38;32.73;;;28.70;;
57551;SDS011;43379;48.160;14.036;2023-02-17T05:37:04;32.50;;;27.97;;
57551;SDS011;43379;48.160;14.036;2023-02-17T05:39:29;33.67;;;30.13;;
57551;SDS011;43379;48.160;14.036;2023-02-17T05:41:55;32.47;;;26.70;;
57551;SDS011;43379;48.160;14.036;2023-02-17T05:44:21;33.67;;;27.20;;
57551;SDS011;43379;48.160;14.036;2023-02-17T05:46:46;35.50;;;28.50;;
57551;SDS011;43379;48.160;14.036;2023-02-17T05:49:12;35.00;;;28.67;;
57551;SDS011;43379;48.160;14.036;2023-02-17T05:51:37;31.73;;;27.40;;
57551;SDS011;43379;48.160;14.036;2023-02-17T05:54:03;36.63;;;30.07;;
57551;SDS011;43379;48.160;14.036;2023-02-17T05:56:29;35.83;;;28.77;;
57551;SDS011;43379;48.160;14.036;2023-02-17T05:58:55;32.30;;;28.20;;
57551;SDS011;43379;48.160;14.036;2023-02-17T06:01:20;35.80;;;28.87;;
57551;SDS011;43379;48.160;14.036;2023-02-17T06:03:46;34.23;;;28.53;;
57551;SDS011;43379;48.160;14.036;2023-02-17T06:06:12;39.73;;;28.60;;
57551;SDS011;43379;48.160;14.036;2023-02-17T06:08:38;32.07;;;28.63;;
57551;SDS011;43379;48.160;14.036;2023-02-17T06:11:04;30.90;;;27.60;;
57551;SDS011;43379;48.160;14.036;2023-02-17T06:13:30;33.13;;;27.30;;
57551;SDS011;43379;48.160;14.036;2023-02-17T06:15:56;36.47;;;28.63;;
57551;SDS011;43379;48.160;14.036;2023-02-17T06:18:22;32.87;;;28.83;;
57551;SDS011;43379;48.160;14.036;2023-02-17T06:20:48;34.43;;;27.33;;
57551;SDS011;43379;48.160;14.036;2023-02-17T06:23:13;32.77;;;28.67;;
57551;SDS011;43379;48.160;14.036;2023-02-17T06:25:39;30.37;;;27.17;;
57551;SDS011;43379;48.160;14.036;2023-02-17T06:28:05;29.97;;;26.77;;
57551;SDS011;43379;48.160;14.036;2023-02-17T06:30:30;36.00;;;30.50;;
57551;SDS011;43379;48.160;14.036;2023-02-17T06:32:56;31.90;;;26.63;;
57551;SDS011;43379;48.160;14.036;2023-02-17T06:35:23;34.70;;;31.03;;
57551;SDS011;43379;48.160;14.036;2023-02-17T06:37:49;32.80;;;29.40;;
57551;SDS011;43379;48.160;14.036;2023-02-17T06:40:15;42.20;;;30.80;;
57551;SDS011;43379;48.160;14.036;2023-02-17T06:42:41;31.50;;;28.33;;
57551;SDS011;43379;48.160;14.036;2023-02-17T06:45:07;32.43;;;27.27;;
57551;SDS011;43379;48.160;14.036;2023-02-17T06:47:33;31.90;;;25.97;;
57551;SDS011;43379;48.160;14.036;2023-02-17T06:49:59;32.13;;;26.27;;
57551;SDS011;43379;48.160;14.036;2023-02-17T06:52:25;24.23;;;21.60;;
57551;SDS011;43379;48.160;14.036;2023-02-17T06:54:51;25.40;;;21.50;;
57551;SDS011;43379;48.160;14.036;2023-02-17T06:57:16;26.40;;;21.80;;
57551;SDS011;43379;48.160;14.036;2023-02-17T06:59:42;28.10;;;24.10;;
57551;SDS011;43379;48.160;14.036;2023-02-17T07:02:11;25.63;;;22.40;;
57551;SDS011;43379;48.160;14.036;2023-02-17T07:04:38;20.77;;;18.73;;
57551;SDS011;43379;48.160;14.036;2023-02-17T07:07:05;23.37;;;20.13;;
57551;SDS011;43379;48.160;14.036;2023-02-17T07:09:32;21.10;;;18.50;;
57551;SDS011;43379;48.160;14.036;2023-02-17T07:11:57;20.10;;;18.03;;
57551;SDS011;43379;48.160;14.036;2023-02-17T07:14:24;18.07;;;16.00;;
57551;SDS011;43379;48.160;14.036;2023-02-17T07:16:50;21.57;;;15.77;;
57551;SDS011;43379;48.160;14.036;2023-02-17T07:19:16;15.83;;;13.97;;
57551;SDS011;43379;48.160;14.036;2023-02-17T07:21:42;17.43;;;15.10;;
57551;SDS011;43379;48.160;14.036;2023-02-17T07:24:07;16.50;;;14.80;;
57551;SDS011;43379;48.160;14.036;2023-02-17T07:26:37;15.80;;;14.17;;
57551;SDS011;43379;48.160;14.036;2023-02-17T07:29:04;15.90;;;14.17;;
57551;SDS011;43379;48.160;14.036;2023-02-17T07:31:31;17.63;;;15.70;;
57551;SDS011;43379;48.160;14.036;2023-02-17T07:33:57;18.53;;;15.80;;
57551;SDS011;43379;48.160;14.036;2023-02-17T07:36:23;15.77;;;14.20;;
57551;SDS011;43379;48.160;14.036;2023-02-17T07:38:49;15.83;;;13.20;;
57551;SDS011;43379;48.160;14.036;2023-02-17T07:41:16;16.23;;;12.33;;
57551;SDS011;43379;48.160;14.036;2023-02-17T07:43:44;12.60;;;11.33;;
57551;SDS011;43379;48.160;14.036;2023-02-17T07:46:11;14.30;;;11.20;;
57551;SDS011;43379;48.160;14.036;2023-02-17T07:48:37;16.27;;;11.10;;
57551;SDS011;43379;48.160;14.036;2023-02-17T07:51:10;10.90;;;9.20;;
57551;SDS011;43379;48.160;14.036;2023-02-17T07:53:37;10.07;;;9.00;;
57551;SDS011;43379;48.160;14.036;2023-02-17T07:56:04;11.30;;;9.30;;
57551;SDS011;43379;48.160;14.036;2023-02-17T07:58:34;9.70;;;8.83;;
57551;SDS011;43379;48.160;14.036;2023-02-17T08:01:05;10.53;;;9.43;;
57551;SDS011;43379;48.160;14.036;2023-02-17T08:03:32;9.07;;;8.23;;
57551;SDS011;43379;48.160;14.036;2023-02-17T08:05:58;8.50;;;7.70;;
57551;SDS011;43379;48.160;14.036;2023-02-17T08:08:23;10.47;;;9.00;;
57551;SDS011;43379;48.160;14.036;2023-02-17T08:11:10;11.97;;;9.77;;
57551;SDS011;43379;48.160;14.036;2023-02-17T08:13:56;11.53;;;10.43;;
57551;SDS011;43379;48.160;14.036;2023-02-17T08:16:21;12.67;;;10.80;;
57551;SDS011;43379;48.160;14.036;2023-02-17T08:18:47;16.43;;;9.80;;
57551;SDS011;43379;48.160;14.036;2023-02-17T08:21:12;12.30;;;11.10;;
57551;SDS011;43379;48.160;14.036;2023-02-17T08:23:38;11.87;;;10.67;;
57551;SDS011;43379;48.160;14.036;2023-02-17T08:26:04;12.17;;;10.73;;
57551;SDS011;43379;48.160;14.036;2023-02-17T08:28:30;14.57;;;10.63;;
57551;SDS011;43379;48.160;14.036;2023-02-17T08:30:57;14.93;;;11.90;;
57551;SDS011;43379;48.160;14.036;2023-02-17T08:33:23;19.07;;;11.23;;
57551;SDS011;43379;48.160;14.036;2023-02-17T08:35:48;15.33;;;10.60;;
57551;SDS011;43379;48.160;14.036;2023-02-17T08:38:14;11.37;;;10.27;;
57551;SDS011;43379;48.160;14.036;2023-02-17T08:40:40;11.40;;;10.27;;
57551;SDS011;43379;48.160;14.036;2023-02-17T08:43:07;11.63;;;10.30;;
57551;SDS011;43379;48.160;14.036;2023-02-17T08:45:33;13.63;;;12.13;;
57551;SDS011;43379;48.160;14.036;2023-02-17T08:48:00;11.53;;;10.07;;
57551;SDS011;43379;48.160;14.036;2023-02-17T08:50:27;11.03;;;9.30;;
57551;SDS011;43379;48.160;14.036;2023-02-17T08:52:53;13.00;;;9.60;;
57551;SDS011;43379;48.160;14.036;2023-02-17T08:55:19;12.37;;;10.37;;
57551;SDS011;43379;48.160;14.036;2023-02-17T08:57:47;11.90;;;9.93;;
57551;SDS011;43379;48.160;14.036;2023-02-17T09:00:14;10.97;;;9.87;;
57551;SDS011;43379;48.160;14.036;2023-02-17T09:02:40;12.33;;;10.77;;
57551;SDS011;43379;48.160;14.036;2023-02-17T09:05:09;12.17;;;10.37;;
57551;SDS011;43379;48.160;14.036;2023-02-17T09:07:37;13.50;;;10.60;;
57551;SDS011;43379;48.160;14.036;2023-02-17T09:10:04;16.50;;;13.53;;
57551;SDS011;43379;48.160;14.036;2023-02-17T09:12:31;12.00;;;10.80;;
57551;SDS011;43379;48.160;14.036;2023-02-17T09:14:57;11.07;;;8.70;;
57551;SDS011;43379;48.160;14.036;2023-02-17T09:17:23;15.73;;;12.23;;
57551;SDS011;43379;48.160;14.036;2023-02-17T09:19:49;13.80;;;12.17;;
57551;SDS011;43379;48.160;14.036;2023-02-17T09:22:14;12.23;;;10.03;;
57551;SDS011;43379;48.160;14.036;2023-02-17T09:24:41;12.23;;;10.00;;
57551;SDS011;43379;48.160;14.036;2023-02-17T09:27:07;12.83;;;9.40;;
57551;SDS011;43379;48.160;14.036;2023-02-17T09:29:35;15.13;;;10.10;;
57551;SDS011;43379;48.160;14.036;2023-02-17T09:32:05;13.77;;;10.13;;
57551;SDS011;43379;48.160;14.036;2023-02-17T09:34:37;10.63;;;9.43;;
57551;SDS011;43379;48.160;14.036;2023-02-17T09:37:08;14.90;;;10.73;;
57551;SDS011;43379;48.160;14.036;2023-02-17T09:39:35;14.53;;;10.97;;
57551;SDS011;43379;48.160;14.036;2023-02-17T09:42:00;14.13;;;12.10;;
57551;SDS011;43379;48.160;14.036;2023-02-17T09:44:38;13.20;;;11.90;;
57551;SDS011;43379;48.160;14.036;2023-02-17T09:47:23;14.60;;;12.40;;
57551;SDS011;43379;48.160;14.036;2023-02-17T09:49:53;15.57;;;12.60;;
57551;SDS011;43379;48.160;14.036;2023-02-17T10:00:41;14.03;;;12.53;;
57551;SDS011;43379;48.160;14.036;2023-02-17T10:03:29;21.03;;;13.67;;
57551;SDS011;43379;48.160;14.036;2023-02-17T10:09:22;11.07;;;9.97;;
57551;SDS011;43379;48.160;14.036;2023-02-17T10:12:00;14.07;;;11.73;;
57551;SDS011;43379;48.160;14.036;2023-02-17T10:14:48;11.40;;;8.93;;
57551;SDS011;43379;48.160;14.036;2023-02-17T10:17:25;11.43;;;8.13;;
57551;SDS011;43379;48.160;14.036;2023-02-17T10:20:06;8.63;;;6.40;;
57551;SDS011;43379;48.160;14.036;2023-02-17T10:22:33;8.30;;;6.27;;
57551;SDS011;43379;48.160;14.036;2023-02-17T10:25:00;8.40;;;5.10;;
57551;SDS011;43379;48.160;14.036;2023-02-17T10:41:18;8.97;;;7.23;;
57551;SDS011;43379;48.160;14.036;2023-02-17T10:43:50;11.00;;;8.20;;
57551;SDS011;43379;48.160;14.036;2023-02-17T10:46:18;10.23;;;9.33;;
57551;SDS011;43379;48.160;14.036;2023-02-17T10:48:51;11.97;;;8.93;;
57551;SDS011;43379;48.160;14.036;2023-02-17T10:51:21;10.10;;;9.13;;
57551;SDS011;43379;48.160;14.036;2023-02-17T10:53:59;12.33;;;9.47;;
57551;SDS011;43379;48.160;14.036;2023-02-17T10:56:35;13.70;;;9.50;;
57551;SDS011;43379;48.160;14.036;2023-02-17T11:01:46;11.37;;;10.27;;
57551;SDS011;43379;48.160;14.036;2023-02-17T11:04:12;13.23;;;9.87;;
57551;SDS011;43379;48.160;14.036;2023-02-17T11:06:48;12.60;;;10.93;;
57551;SDS011;43379;48.160;14.036;2023-02-17T11:11:59;12.40;;;9.20;;
57551;SDS011;43379;48.160;14.036;2023-02-17T11:14:27;12.27;;;9.40;;
57551;SDS011;43379;48.160;14.036;2023-02-17T11:16:59;11.27;;;8.80;;
57551;SDS011;43379;48.160;14.036;2023-02-17T11:21:55;7.53;;;4.00;;
57551;SDS011;43379;48.160;14.036;2023-02-17T11:24:23;4.70;;;3.30;;
57551;SDS011;43379;48.160;14.036;2023-02-17T11:27:09;4.23;;;3.10;;
57551;SDS011;43379;48.160;14.036;2023-02-17T11:29:35;4.57;;;3.90;;
57551;SDS011;43379;48.160;14.036;2023-02-17T11:32:03;5.67;;;3.73;;
57551;SDS011;43379;48.160;14.036;2023-02-17T11:34:31;4.77;;;3.70;;
57551;SDS011;43379;48.160;14.036;2023-02-17T11:39:25;8.53;;;3.40;;
57551;SDS011;43379;48.160;14.036;2023-02-17T11:41:51;6.93;;;3.83;;
57551;SDS011;43379;48.160;14.036;2023-02-17T11:44:24;5.63;;;3.63;;
57551;SDS011;43379;48.160;14.036;2023-02-17T11:46:54;4.40;;;4.00;;
57551;SDS011;43379;48.160;14.036;2023-02-17T11:52:26;3.47;;;3.10;;
57551;SDS011;43379;48.160;14.036;2023-02-17T11:57:35;7.80;;;3.80;;
57551;SDS011;43379;48.160;14.036;2023-02-17T12:02:43;4.77;;;3.20;;
57551;SDS011;43379;48.160;14.036;2023-02-17T12:27:30;5.23;;;2.83;;
57551;SDS011;43379;48.160;14.036;2023-02-17T12:33:21;3.57;;;2.60;;
57551;SDS011;43379;48.160;14.036;2023-02-17T12:35:57;9.23;;;3.13;;
57551;SDS011;43379;48.160;14.036;2023-02-17T12:38:31;4.77;;;2.80;;
57551;SDS011;43379;48.160;14.036;2023-02-17T12:43:43;6.80;;;4.73;;
57551;SDS011;43379;48.160;14.036;2023-02-17T12:46:23;2.70;;;2.27;;
57551;SDS011;43379;48.160;14.036;2023-02-17T12:54:21;3.83;;;2.77;;
57551;SDS011;43379;48.160;14.036;2023-02-17T12:57:20;4.33;;;2.30;;
57551;SDS011;43379;48.160;14.036;2023-02-17T12:59:49;3.80;;;2.20;;
57551;SDS011;43379;48.160;14.036;2023-02-17T13:02:19;2.80;;;2.10;;
57551;SDS011;43379;48.160;14.036;2023-02-17T13:04:48;2.67;;;2.47;;
57551;SDS011;43379;48.160;14.036;2023-02-17T13:09:56;2.40;;;2.03;;
57551;SDS011;43379;48.160;14.036;2023-02-17T13:14:48;4.00;;;2.50;;
57551;SDS011;43379;48.160;14.036;2023-02-17T13:17:38;2.43;;;1.87;;
57551;SDS011;43379;48.160;14.036;2023-02-17T13:22:42;2.60;;;2.40;;
57551;SDS011;43379;48.160;14.036;2023-02-17T13:25:27;2.87;;;2.00;;
57551;SDS011;43379;48.160;14.036;2023-02-17T13:27:57;2.80;;;1.97;;
57551;SDS011;43379;48.160;14.036;2023-02-17T13:30:26;5.03;;;2.20;;
57551;SDS011;43379;48.160;14.036;2023-02-17T13:33:05;3.97;;;3.37;;
57551;SDS011;43379;48.160;14.036;2023-02-17T13:35:51;2.80;;;1.93;;
57551;SDS011;43379;48.160;14.036;2023-02-17T13:38:35;3.60;;;2.27;;
57551;SDS011;43379;48.160;14.036;2023-02-17T13:41:02;6.30;;;2.30;;
57551;SDS011;43379;48.160;14.036;2023-02-17T13:43:38;3.30;;;2.27;;
57551;SDS011;43379;48.160;14.036;2023-02-17T13:46:06;4.00;;;2.57;;
57551;SDS011;43379;48.160;14.036;2023-02-17T13:48:38;3.20;;;2.70;;
57551;SDS011;43379;48.160;14.036;2023-02-17T13:51:04;3.43;;;2.60;;
57551;SDS011;43379;48.160;14.036;2023-02-17T13:53:36;4.50;;;3.47;;
57551;SDS011;43379;48.160;14.036;2023-02-17T13:56:36;5.83;;;3.00;;
57551;SDS011;43379;48.160;14.036;2023-02-17T13:59:15;5.30;;;2.53;;
57551;SDS011;43379;48.160;14.036;2023-02-17T14:01:42;5.90;;;3.40;;
57551;SDS011;43379;48.160;14.036;2023-02-17T14:04:42;5.17;;;2.60;;
57551;SDS011;43379;48.160;14.036;2023-02-17T14:07:02;7.27;;;2.93;;
57551;SDS011;43379;48.160;14.036;2023-02-17T14:11:57;3.90;;;2.50;;
57551;SDS011;43379;48.160;14.036;2023-02-17T14:14:28;5.47;;;3.23;;
57551;SDS011;43379;48.160;14.036;2023-02-17T14:17:01;7.60;;;2.97;;
57551;SDS011;43379;48.160;14.036;2023-02-17T14:19:43;3.53;;;2.57;;
57551;SDS011;43379;48.160;14.036;2023-02-17T14:22:23;5.03;;;2.73;;
57551;SDS011;43379;48.160;14.036;2023-02-17T14:25:12;6.90;;;2.53;;
57551;SDS011;43379;48.160;14.036;2023-02-17T14:27:49;5.20;;;2.97;;
57551;SDS011;43379;48.160;14.036;2023-02-17T14:30:29;4.37;;;2.60;;
57551;SDS011;43379;48.160;14.036;2023-02-17T14:40:45;5.53;;;3.60;;
57551;SDS011;43379;48.160;14.036;2023-02-17T14:43:11;5.10;;;3.17;;
57551;SDS011;43379;48.160;14.036;2023-02-17T14:45:37;6.23;;;3.37;;
57551;SDS011;43379;48.160;14.036;2023-02-17T14:48:03;3.90;;;2.67;;
57551;SDS011;43379;48.160;14.036;2023-02-17T14:50:30;4.20;;;2.83;;
57551;SDS011;43379;48.160;14.036;2023-02-17T14:52:57;3.37;;;2.83;;
57551;SDS011;43379;48.160;14.036;2023-02-17T14:55:57;4.40;;;3.20;;
57551;SDS011;43379;48.160;14.036;2023-02-17T14:58:18;5.57;;;4.97;;
57551;SDS011;43379;48.160;14.036;2023-02-17T15:00:46;3.67;;;3.23;;
57551;SDS011;43379;48.160;14.036;2023-02-17T15:03:12;3.70;;;2.70;;
57551;SDS011;43379;48.160;14.036;2023-02-17T15:05:38;5.13;;;3.63;;
57551;SDS011;43379;48.160;14.036;2023-02-17T15:08:04;7.40;;;3.37;;
57551;SDS011;43379;48.160;14.036;2023-02-17T15:10:29;3.40;;;2.70;;
57551;SDS011;43379;48.160;14.036;2023-02-17T15:12:55;4.03;;;2.80;;
57551;SDS011;43379;48.160;14.036;2023-02-17T15:15:21;4.27;;;2.57;;
57551;SDS011;43379;48.160;14.036;2023-02-17T15:17:47;4.50;;;3.27;;
57551;SDS011;43379;48.160;14.036;2023-02-17T15:20:14;7.93;;;3.40;;
57551;SDS011;43379;48.160;14.036;2023-02-17T15:22:40;3.43;;;2.83;;
57551;SDS011;43379;48.160;14.036;2023-02-17T15:25:15;6.97;;;2.97;;
57551;SDS011;43379;48.160;14.036;2023-02-17T15:27:43;4.73;;;2.80;;
57551;SDS011;43379;48.160;14.036;2023-02-17T15:30:11;3.33;;;2.60;;
57551;SDS011;43379;48.160;14.036;2023-02-17T15:32:41;4.13;;;2.93;;
57551;SDS011;43379;48.160;14.036;2023-02-17T15:37:47;4.63;;;3.20;;
57551;SDS011;43379;48.160;14.036;2023-02-17T15:40:14;3.70;;;2.70;;
57551;SDS011;43379;48.160;14.036;2023-02-17T15:42:42;7.03;;;3.60;;
57551;SDS011;43379;48.160;14.036;2023-02-17T15:45:10;6.30;;;4.07;;
57551;SDS011;43379;48.160;14.036;2023-02-17T15:47:39;4.27;;;3.53;;
57551;SDS011;43379;48.160;14.036;2023-02-17T15:50:11;5.23;;;3.13;;
57551;SDS011;43379;48.160;14.036;2023-02-17T15:52:41;4.20;;;3.47;;
57551;SDS011;43379;48.160;14.036;2023-02-17T15:55:08;4.50;;;2.87;;
57551;SDS011;43379;48.160;14.036;2023-02-17T15:57:33;9.47;;;3.67;;
57551;SDS011;43379;48.160;14.036;2023-02-17T16:00:04;7.87;;;4.00;;
57551;SDS011;43379;48.160;14.036;2023-02-17T16:02:39;3.40;;;3.10;;
57551;SDS011;43379;48.160;14.036;2023-02-17T16:05:05;3.70;;;3.03;;
57551;SDS011;43379;48.160;14.036;2023-02-17T16:07:33;5.83;;;3.30;;
57551;SDS011;43379;48.160;14.036;2023-02-17T16:09:59;4.87;;;3.07;;
57551;SDS011;43379;48.160;14.036;2023-02-17T16:12:24;3.90;;;3.40;;
57551;SDS011;43379;48.160;14.036;2023-02-17T16:14:51;4.17;;;3.10;;
57551;SDS011;43379;48.160;14.036;2023-02-17T16:17:17;4.67;;;2.80;;
57551;SDS011;43379;48.160;14.036;2023-02-17T16:19:43;4.37;;;2.80;;
57551;SDS011;43379;48.160;14.036;2023-02-17T16:22:09;6.40;;;4.13;;
57551;SDS011;43379;48.160;14.036;2023-02-17T16:24:34;5.10;;;3.90;;
57551;SDS011;43379;48.160;14.036;2023-02-17T16:27:00;5.03;;;3.87;;
57551;SDS011;43379;48.160;14.036;2023-02-17T16:29:26;3.83;;;3.53;;
57551;SDS011;43379;48.160;14.036;2023-02-17T16:31:52;5.00;;;3.10;;
57551;SDS011;43379;48.160;14.036;2023-02-17T16:34:19;4.03;;;3.00;;
57551;SDS011;43379;48.160;14.036;2023-02-17T16:36:47;4.20;;;3.20;;
57551;SDS011;43379;48.160;14.036;2023-02-17T16:39:16;3.57;;;3.20;;